sensor_id;sensor_type;location;lat;lon;timestamp;temperature;humidity
31639;DHT22;18248;51.522;7.020;2022-11-20T00:02:34;0.40;99.90
31639;DHT22;18248;51.522;7.020;2022-11-20T00:05:33;0.30;99.90
31639;DHT22;18248;51.522;7.020;2022-11-20T00:08:32;0.20;99.90
31639;DHT22;18248;51.522;7.020;2022-11-20T00:11:32;0.20;99.90
31639;DHT22;18248;51.522;7.020;2022-11-20T00:14:31;0.20;99.90
31639;DHT22;18248;51.522;7.020;2022-11-20T00:17:29;0.20;99.90
31639;DHT22;18248;51.522;7.020;2022-11-20T00:20:28;0.20;99.90
31639;DHT22;18248;51.522;7.020;2022-11-20T00:23:26;0.20;99.90
31639;DHT22;18248;51.522;7.020;2022-11-20T00:26:26;0.20;99.90
31639;DHT22;18248;51.522;7.020;2022-11-20T00:29:25;0.20;99.90
31639;DHT22;18248;51.522;7.020;2022-11-20T00:32:25;0.20;99.90
31639;DHT22;18248;51.522;7.020;2022-11-20T00:35:23;0.20;99.90
31639;DHT22;18248;51.522;7.020;2022-11-20T00:38:23;0.10;99.90
31639;DHT22;18248;51.522;7.020;2022-11-20T00:41:23;0.10;99.90
31639;DHT22;18248;51.522;7.020;2022-11-20T00:44:22;0.10;99.90
31639;DHT22;18248;51.522;7.020;2022-11-20T00:47:20;0.10;99.90
31639;DHT22;18248;51.522;7.020;2022-11-20T00:50:20;0.00;99.90
31639;DHT22;18248;51.522;7.020;2022-11-20T00:53:20;0.00;99.90
31639;DHT22;18248;51.522;7.020;2022-11-20T00:56:19;-0.10;99.90
31639;DHT22;18248;51.522;7.020;2022-11-20T00:59:18;0.00;99.90
31639;DHT22;18248;51.522;7.020;2022-11-20T01:02:16;0.00;99.90
31639;DHT22;18248;51.522;7.020;2022-11-20T01:05:15;0.00;99.90
31639;DHT22;18248;51.522;7.020;2022-11-20T01:08:13;0.00;99.90
31639;DHT22;18248;51.522;7.020;2022-11-20T01:11:15;0.00;99.90
31639;DHT22;18248;51.522;7.020;2022-11-20T01:14:18;0.00;99.90
31639;DHT22;18248;51.522;7.020;2022-11-20T01:17:16;0.00;99.90
31639;DHT22;18248;51.522;7.020;2022-11-20T01:20:15;-0.10;99.90
31639;DHT22;18248;51.522;7.020;2022-11-20T01:23:13;-0.10;99.90
31639;DHT22;18248;51.522;7.020;2022-11-20T01:26:14;-0.10;99.90
31639;DHT22;18248;51.522;7.020;2022-11-20T01:29:19;-0.20;99.90
31639;DHT22;18248;51.522;7.020;2022-11-20T01:32:19;-0.20;99.90
31639;DHT22;18248;51.522;7.020;2022-11-20T01:35:17;-0.20;99.90
31639;DHT22;18248;51.522;7.020;2022-11-20T01:38:16;-0.20;99.90
31639;DHT22;18248;51.522;7.020;2022-11-20T01:41:15;-0.20;99.90
31639;DHT22;18248;51.522;7.020;2022-11-20T01:44:54;-0.20;99.90
31639;DHT22;18248;51.522;7.020;2022-11-20T01:47:53;-0.20;99.90
31639;DHT22;18248;51.522;7.020;2022-11-20T01:50:52;-0.30;99.90
31639;DHT22;18248;51.522;7.020;2022-11-20T01:53:53;-0.30;99.90
31639;DHT22;18248;51.522;7.020;2022-11-20T01:56:56;-0.30;99.90
31639;DHT22;18248;51.522;7.020;2022-11-20T02:00:00;-0.30;99.90
31639;DHT22;18248;51.522;7.020;2022-11-20T02:03:07;-0.40;99.90
31639;DHT22;18248;51.522;7.020;2022-11-20T02:06:10;-0.40;99.90
31639;DHT22;18248;51.522;7.020;2022-11-20T02:09:10;-0.40;99.90
31639;DHT22;18248;51.522;7.020;2022-11-20T02:12:11;-0.40;99.90
31639;DHT22;18248;51.522;7.020;2022-11-20T02:15:30;-0.40;99.90
31639;DHT22;18248;51.522;7.020;2022-11-20T02:18:30;-0.40;99.90
31639;DHT22;18248;51.522;7.020;2022-11-20T02:21:55;-0.40;99.90
31639;DHT22;18248;51.522;7.020;2022-11-20T02:24:58;-0.50;99.90
31639;DHT22;18248;51.522;7.020;2022-11-20T02:27:58;-0.50;99.90
31639;DHT22;18248;51.522;7.020;2022-11-20T02:30:56;-0.50;99.90
31639;DHT22;18248;51.522;7.020;2022-11-20T02:33:56;-0.50;99.90
31639;DHT22;18248;51.522;7.020;2022-11-20T02:36:56;-0.50;99.90
31639;DHT22;18248;51.522;7.020;2022-11-20T02:39:55;-0.50;99.90
31639;DHT22;18248;51.522;7.020;2022-11-20T02:42:55;-0.50;99.90
31639;DHT22;18248;51.522;7.020;2022-11-20T02:45:54;-0.40;99.90
31639;DHT22;18248;51.522;7.020;2022-11-20T02:48:52;-0.40;99.90
31639;DHT22;18248;51.522;7.020;2022-11-20T02:51:52;-0.40;99.90
31639;DHT22;18248;51.522;7.020;2022-11-20T02:54:51;-0.30;99.90
31639;DHT22;18248;51.522;7.020;2022-11-20T02:57:49;-0.30;99.90
31639;DHT22;18248;51.522;7.020;2022-11-20T03:00:48;-0.20;99.90
31639;DHT22;18248;51.522;7.020;2022-11-20T03:03:47;-0.10;99.90
31639;DHT22;18248;51.522;7.020;2022-11-20T03:06:46;0.00;99.90
31639;DHT22;18248;51.522;7.020;2022-11-20T03:09:46;0.00;99.90
31639;DHT22;18248;51.522;7.020;2022-11-20T03:12:45;0.00;99.90
31639;DHT22;18248;51.522;7.020;2022-11-20T03:15:43;0.10;99.90
31639;DHT22;18248;51.522;7.020;2022-11-20T03:18:43;0.10;99.90
31639;DHT22;18248;51.522;7.020;2022-11-20T03:21:41;0.10;99.90
31639;DHT22;18248;51.522;7.020;2022-11-20T03:24:40;0.10;99.90
31639;DHT22;18248;51.522;7.020;2022-11-20T03:27:38;0.20;99.90
31639;DHT22;18248;51.522;7.020;2022-11-20T03:30:37;0.20;99.90
31639;DHT22;18248;51.522;7.020;2022-11-20T03:33:38;0.20;99.90
31639;DHT22;18248;51.522;7.020;2022-11-20T03:36:41;0.20;99.90
31639;DHT22;18248;51.522;7.020;2022-11-20T03:39:40;0.20;99.90
31639;DHT22;18248;51.522;7.020;2022-11-20T03:42:38;0.20;99.90
31639;DHT22;18248;51.522;7.020;2022-11-20T03:45:43;0.30;99.90
31639;DHT22;18248;51.522;7.020;2022-11-20T03:48:42;0.30;99.90
31639;DHT22;18248;51.522;7.020;2022-11-20T03:51:40;0.30;99.90
31639;DHT22;18248;51.522;7.020;2022-11-20T03:54:39;0.40;99.90
31639;DHT22;18248;51.522;7.020;2022-11-20T03:57:37;0.40;99.90
31639;DHT22;18248;51.522;7.020;2022-11-20T04:00:36;0.40;99.90
31639;DHT22;18248;51.522;7.020;2022-11-20T04:03:35;0.30;99.90
31639;DHT22;18248;51.522;7.020;2022-11-20T04:06:36;0.40;99.90
31639;DHT22;18248;51.522;7.020;2022-11-20T04:09:35;0.30;99.90
31639;DHT22;18248;51.522;7.020;2022-11-20T04:12:33;0.30;99.90
31639;DHT22;18248;51.522;7.020;2022-11-20T04:15:32;0.30;99.90
31639;DHT22;18248;51.522;7.020;2022-11-20T04:18:31;0.30;99.90
31639;DHT22;18248;51.522;7.020;2022-11-20T04:21:30;0.30;99.90
31639;DHT22;18248;51.522;7.020;2022-11-20T04:24:28;0.40;99.90
31639;DHT22;18248;51.522;7.020;2022-11-20T04:27:27;0.40;99.90
31639;DHT22;18248;51.522;7.020;2022-11-20T04:30:25;0.40;99.90
31639;DHT22;18248;51.522;7.020;2022-11-20T04:33:24;0.30;99.90
31639;DHT22;18248;51.522;7.020;2022-11-20T04:36:24;0.30;99.90
31639;DHT22;18248;51.522;7.020;2022-11-20T04:39:23;0.30;99.90
31639;DHT22;18248;51.522;7.020;2022-11-20T04:42:22;0.40;99.90
31639;DHT22;18248;51.522;7.020;2022-11-20T04:45:26;0.30;99.90
31639;DHT22;18248;51.522;7.020;2022-11-20T04:48:26;0.40;99.90
31639;DHT22;18248;51.522;7.020;2022-11-20T04:51:25;0.40;99.90
31639;DHT22;18248;51.522;7.020;2022-11-20T04:54:23;0.40;99.90
31639;DHT22;18248;51.522;7.020;2022-11-20T04:57:22;0.30;99.90
31639;DHT22;18248;51.522;7.020;2022-11-20T05:00:20;0.30;99.90
31639;DHT22;18248;51.522;7.020;2022-11-20T05:03:19;0.30;99.90
31639;DHT22;18248;51.522;7.020;2022-11-20T05:06:19;0.20;99.90
31639;DHT22;18248;51.522;7.020;2022-11-20T05:09:18;0.20;99.90
31639;DHT22;18248;51.522;7.020;2022-11-20T05:12:16;0.20;99.90
31639;DHT22;18248;51.522;7.020;2022-11-20T05:15:15;0.10;99.90
31639;DHT22;18248;51.522;7.020;2022-11-20T05:18:13;0.10;99.90
31639;DHT22;18248;51.522;7.020;2022-11-20T05:21:13;0.00;99.90
31639;DHT22;18248;51.522;7.020;2022-11-20T05:24:12;0.00;99.90
31639;DHT22;18248;51.522;7.020;2022-11-20T05:27:10;0.00;99.90
31639;DHT22;18248;51.522;7.020;2022-11-20T05:30:09;0.00;99.90
31639;DHT22;18248;51.522;7.020;2022-11-20T05:33:08;0.00;99.90
31639;DHT22;18248;51.522;7.020;2022-11-20T05:36:07;0.00;99.90
31639;DHT22;18248;51.522;7.020;2022-11-20T05:39:06;0.10;99.90
31639;DHT22;18248;51.522;7.020;2022-11-20T05:42:04;0.10;99.90
31639;DHT22;18248;51.522;7.020;2022-11-20T05:45:22;0.10;99.90
31639;DHT22;18248;51.522;7.020;2022-11-20T05:48:20;0.20;99.90
31639;DHT22;18248;51.522;7.020;2022-11-20T05:51:19;0.20;99.90
31639;DHT22;18248;51.522;7.020;2022-11-20T05:54:18;0.20;99.90
31639;DHT22;18248;51.522;7.020;2022-11-20T05:57:16;0.30;99.90
31639;DHT22;18248;51.522;7.020;2022-11-20T06:00:15;0.30;99.90
31639;DHT22;18248;51.522;7.020;2022-11-20T06:03:14;0.30;99.90
31639;DHT22;18248;51.522;7.020;2022-11-20T06:06:13;0.30;99.90
31639;DHT22;18248;51.522;7.020;2022-11-20T06:09:12;0.40;99.90
31639;DHT22;18248;51.522;7.020;2022-11-20T06:12:11;0.40;99.90
31639;DHT22;18248;51.522;7.020;2022-11-20T06:15:09;0.40;99.90
31639;DHT22;18248;51.522;7.020;2022-11-20T06:18:08;0.50;99.90
31639;DHT22;18248;51.522;7.020;2022-11-20T06:21:18;0.50;99.90
31639;DHT22;18248;51.522;7.020;2022-11-20T06:24:17;0.40;99.90
31639;DHT22;18248;51.522;7.020;2022-11-20T06:27:16;0.40;99.90
31639;DHT22;18248;51.522;7.020;2022-11-20T06:30:15;0.40;99.90
31639;DHT22;18248;51.522;7.020;2022-11-20T06:33:13;0.50;99.90
31639;DHT22;18248;51.522;7.020;2022-11-20T06:36:14;0.50;99.90
31639;DHT22;18248;51.522;7.020;2022-11-20T06:39:13;0.50;99.90
31639;DHT22;18248;51.522;7.020;2022-11-20T06:42:11;0.50;99.90
31639;DHT22;18248;51.522;7.020;2022-11-20T06:45:10;0.50;99.90
31639;DHT22;18248;51.522;7.020;2022-11-20T06:48:10;0.50;99.90
31639;DHT22;18248;51.522;7.020;2022-11-20T06:51:08;0.50;99.90
31639;DHT22;18248;51.522;7.020;2022-11-20T06:54:07;0.50;99.90
31639;DHT22;18248;51.522;7.020;2022-11-20T06:57:05;0.40;99.90
31639;DHT22;18248;51.522;7.020;2022-11-20T07:00:04;0.40;99.90
31639;DHT22;18248;51.522;7.020;2022-11-20T07:03:04;0.40;99.90
31639;DHT22;18248;51.522;7.020;2022-11-20T07:06:04;0.40;99.90
31639;DHT22;18248;51.522;7.020;2022-11-20T07:09:03;0.30;99.90
31639;DHT22;18248;51.522;7.020;2022-11-20T07:12:05;0.30;99.90
31639;DHT22;18248;51.522;7.020;2022-11-20T07:15:04;0.20;99.90
31639;DHT22;18248;51.522;7.020;2022-11-20T07:18:02;0.20;99.90
31639;DHT22;18248;51.522;7.020;2022-11-20T07:21:02;0.20;99.90
31639;DHT22;18248;51.522;7.020;2022-11-20T07:24:01;0.20;99.90
31639;DHT22;18248;51.522;7.020;2022-11-20T07:27:00;0.20;99.90
31639;DHT22;18248;51.522;7.020;2022-11-20T07:29:58;0.10;99.90
31639;DHT22;18248;51.522;7.020;2022-11-20T07:32:57;0.10;99.90
31639;DHT22;18248;51.522;7.020;2022-11-20T07:35:58;0.10;99.90
31639;DHT22;18248;51.522;7.020;2022-11-20T07:38:57;0.10;99.90
31639;DHT22;18248;51.522;7.020;2022-11-20T07:41:55;0.10;99.90
31639;DHT22;18248;51.522;7.020;2022-11-20T07:44:54;0.10;99.90
31639;DHT22;18248;51.522;7.020;2022-11-20T07:47:52;0.20;99.90
31639;DHT22;18248;51.522;7.020;2022-11-20T07:50:57;0.20;99.90
31639;DHT22;18248;51.522;7.020;2022-11-20T07:53:58;0.20;99.90
31639;DHT22;18248;51.522;7.020;2022-11-20T07:56:57;0.20;99.90
31639;DHT22;18248;51.522;7.020;2022-11-20T07:59:55;0.20;99.90
31639;DHT22;18248;51.522;7.020;2022-11-20T08:02:54;0.20;99.90
31639;DHT22;18248;51.522;7.020;2022-11-20T08:05:52;0.20;99.90
31639;DHT22;18248;51.522;7.020;2022-11-20T08:08:51;0.30;99.90
31639;DHT22;18248;51.522;7.020;2022-11-20T08:11:49;0.20;99.90
31639;DHT22;18248;51.522;7.020;2022-11-20T08:15:07;0.30;99.90
31639;DHT22;18248;51.522;7.020;2022-11-20T08:18:10;0.30;99.90
31639;DHT22;18248;51.522;7.020;2022-11-20T08:21:09;0.30;99.90
31639;DHT22;18248;51.522;7.020;2022-11-20T08:24:08;0.30;99.90
31639;DHT22;18248;51.522;7.020;2022-11-20T08:27:07;0.40;99.90
31639;DHT22;18248;51.522;7.020;2022-11-20T08:30:06;0.40;99.90
31639;DHT22;18248;51.522;7.020;2022-11-20T08:33:08;0.50;99.90
31639;DHT22;18248;51.522;7.020;2022-11-20T08:36:07;0.50;99.90
31639;DHT22;18248;51.522;7.020;2022-11-20T08:39:06;0.60;99.90
31639;DHT22;18248;51.522;7.020;2022-11-20T08:42:09;0.70;99.90
31639;DHT22;18248;51.522;7.020;2022-11-20T08:45:07;0.70;99.90
31639;DHT22;18248;51.522;7.020;2022-11-20T08:48:06;0.80;99.90
31639;DHT22;18248;51.522;7.020;2022-11-20T08:51:06;0.80;99.90
31639;DHT22;18248;51.522;7.020;2022-11-20T08:54:05;0.90;99.90
31639;DHT22;18248;51.522;7.020;2022-11-20T08:57:04;1.00;99.90
31639;DHT22;18248;51.522;7.020;2022-11-20T09:00:06;1.00;99.90
31639;DHT22;18248;51.522;7.020;2022-11-20T09:03:05;1.10;99.90
31639;DHT22;18248;51.522;7.020;2022-11-20T09:06:06;1.10;99.90
31639;DHT22;18248;51.522;7.020;2022-11-20T09:09:05;1.20;99.90
31639;DHT22;18248;51.522;7.020;2022-11-20T09:12:04;1.30;99.90
31639;DHT22;18248;51.522;7.020;2022-11-20T09:15:03;1.40;99.90
31639;DHT22;18248;51.522;7.020;2022-11-20T09:18:03;1.50;99.90
31639;DHT22;18248;51.522;7.020;2022-11-20T09:21:11;1.60;99.90
31639;DHT22;18248;51.522;7.020;2022-11-20T09:24:11;1.70;99.90
31639;DHT22;18248;51.522;7.020;2022-11-20T09:27:09;1.80;99.90
31639;DHT22;18248;51.522;7.020;2022-11-20T09:30:08;1.80;99.90
31639;DHT22;18248;51.522;7.020;2022-11-20T09:33:07;2.00;99.90
31639;DHT22;18248;51.522;7.020;2022-11-20T09:36:06;2.20;99.90
31639;DHT22;18248;51.522;7.020;2022-11-20T09:39:06;2.30;99.90
31639;DHT22;18248;51.522;7.020;2022-11-20T09:45:16;2.70;99.90
31639;DHT22;18248;51.522;7.020;2022-11-20T09:54:40;3.00;99.90
31639;DHT22;18248;51.522;7.020;2022-11-20T09:57:43;3.20;99.90
31639;DHT22;18248;51.522;7.020;2022-11-20T10:00:43;3.30;99.90
31639;DHT22;18248;51.522;7.020;2022-11-20T10:04:13;3.50;99.90
31639;DHT22;18248;51.522;7.020;2022-11-20T10:10:43;3.70;99.90
31639;DHT22;18248;51.522;7.020;2022-11-20T10:14:16;3.80;99.90
31639;DHT22;18248;51.522;7.020;2022-11-20T10:17:53;3.90;99.90
31639;DHT22;18248;51.522;7.020;2022-11-20T10:24:43;4.40;99.90
31639;DHT22;18248;51.522;7.020;2022-11-20T10:31:17;4.80;99.90
31639;DHT22;18248;51.522;7.020;2022-11-20T10:38:00;5.10;99.90
31639;DHT22;18248;51.522;7.020;2022-11-20T10:41:02;5.20;99.90
31639;DHT22;18248;51.522;7.020;2022-11-20T10:44:21;5.20;99.90
31639;DHT22;18248;51.522;7.020;2022-11-20T10:47:40;5.30;99.90
31639;DHT22;18248;51.522;7.020;2022-11-20T10:50:49;5.40;99.90
31639;DHT22;18248;51.522;7.020;2022-11-20T10:54:11;5.40;99.90
31639;DHT22;18248;51.522;7.020;2022-11-20T10:57:45;5.50;99.90
31639;DHT22;18248;51.522;7.020;2022-11-20T11:00:46;5.50;99.90
31639;DHT22;18248;51.522;7.020;2022-11-20T11:03:45;5.60;99.90
31639;DHT22;18248;51.522;7.020;2022-11-20T11:06:47;5.60;99.90
31639;DHT22;18248;51.522;7.020;2022-11-20T11:09:49;5.70;99.90
31639;DHT22;18248;51.522;7.020;2022-11-20T11:12:48;5.80;99.90
31639;DHT22;18248;51.522;7.020;2022-11-20T11:15:46;5.80;99.90
31639;DHT22;18248;51.522;7.020;2022-11-20T11:18:45;5.90;99.90
31639;DHT22;18248;51.522;7.020;2022-11-20T11:21:48;5.90;99.90
31639;DHT22;18248;51.522;7.020;2022-11-20T11:24:51;5.90;99.90
31639;DHT22;18248;51.522;7.020;2022-11-20T11:27:52;5.90;99.90
31639;DHT22;18248;51.522;7.020;2022-11-20T11:30:55;6.00;99.90
31639;DHT22;18248;51.522;7.020;2022-11-20T11:34:07;6.00;99.90
31639;DHT22;18248;51.522;7.020;2022-11-20T11:37:15;6.10;99.90
31639;DHT22;18248;51.522;7.020;2022-11-20T11:40:17;6.20;99.90
31639;DHT22;18248;51.522;7.020;2022-11-20T11:43:23;6.30;99.90
31639;DHT22;18248;51.522;7.020;2022-11-20T11:46:49;6.30;99.90
31639;DHT22;18248;51.522;7.020;2022-11-20T11:49:48;6.30;99.90
31639;DHT22;18248;51.522;7.020;2022-11-20T11:53:12;6.40;99.90
31639;DHT22;18248;51.522;7.020;2022-11-20T11:56:11;6.40;99.90
31639;DHT22;18248;51.522;7.020;2022-11-20T11:59:22;6.40;99.90
31639;DHT22;18248;51.522;7.020;2022-11-20T12:02:34;6.40;99.90
31639;DHT22;18248;51.522;7.020;2022-11-20T12:05:42;6.40;99.90
31639;DHT22;18248;51.522;7.020;2022-11-20T12:11:51;6.40;99.90
31639;DHT22;18248;51.522;7.020;2022-11-20T12:14:54;6.40;99.90
31639;DHT22;18248;51.522;7.020;2022-11-20T12:17:53;6.40;99.90
31639;DHT22;18248;51.522;7.020;2022-11-20T12:24:18;6.40;99.90
31639;DHT22;18248;51.522;7.020;2022-11-20T12:30:32;6.50;99.90
31639;DHT22;18248;51.522;7.020;2022-11-20T12:37:21;6.40;99.90
31639;DHT22;18248;51.522;7.020;2022-11-20T12:40:44;6.30;99.90
31639;DHT22;18248;51.522;7.020;2022-11-20T12:44:04;6.30;99.90
31639;DHT22;18248;51.522;7.020;2022-11-20T12:51:06;6.30;99.90
31639;DHT22;18248;51.522;7.020;2022-11-20T13:04:50;6.20;99.90
31639;DHT22;18248;51.522;7.020;2022-11-20T13:07:53;6.20;99.90
31639;DHT22;18248;51.522;7.020;2022-11-20T13:14:18;6.20;99.90
31639;DHT22;18248;51.522;7.020;2022-11-20T13:17:36;6.30;99.90
31639;DHT22;18248;51.522;7.020;2022-11-20T13:20:36;6.30;99.90
31639;DHT22;18248;51.522;7.020;2022-11-20T13:23:39;6.30;99.90
31639;DHT22;18248;51.522;7.020;2022-11-20T13:26:37;6.30;99.90
31639;DHT22;18248;51.522;7.020;2022-11-20T13:29:37;6.30;99.90
31639;DHT22;18248;51.522;7.020;2022-11-20T13:32:48;6.30;99.90
31639;DHT22;18248;51.522;7.020;2022-11-20T13:36:05;6.30;99.90
31639;DHT22;18248;51.522;7.020;2022-11-20T13:39:04;6.30;99.90
31639;DHT22;18248;51.522;7.020;2022-11-20T13:42:21;6.30;99.90
31639;DHT22;18248;51.522;7.020;2022-11-20T13:45:28;6.30;99.90
31639;DHT22;18248;51.522;7.020;2022-11-20T13:48:31;6.30;99.90
31639;DHT22;18248;51.522;7.020;2022-11-20T13:51:41;6.30;99.90
31639;DHT22;18248;51.522;7.020;2022-11-20T14:01:21;6.30;99.90
31639;DHT22;18248;51.522;7.020;2022-11-20T14:04:30;6.30;99.90
31639;DHT22;18248;51.522;7.020;2022-11-20T14:07:39;6.20;99.90
31639;DHT22;18248;51.522;7.020;2022-11-20T14:10:40;6.20;99.90
31639;DHT22;18248;51.522;7.020;2022-11-20T14:13:39;6.20;99.90
31639;DHT22;18248;51.522;7.020;2022-11-20T14:16:37;6.20;99.90
31639;DHT22;18248;51.522;7.020;2022-11-20T14:19:37;6.20;99.90
31639;DHT22;18248;51.522;7.020;2022-11-20T14:22:37;6.20;99.90
31639;DHT22;18248;51.522;7.020;2022-11-20T14:25:35;6.30;99.90
31639;DHT22;18248;51.522;7.020;2022-11-20T14:28:34;6.30;99.90
31639;DHT22;18248;51.522;7.020;2022-11-20T14:31:33;6.30;99.90
31639;DHT22;18248;51.522;7.020;2022-11-20T14:34:35;6.30;99.90
31639;DHT22;18248;51.522;7.020;2022-11-20T14:37:38;6.20;99.90
31639;DHT22;18248;51.522;7.020;2022-11-20T14:40:37;6.10;99.90
31639;DHT22;18248;51.522;7.020;2022-11-20T14:43:36;6.00;99.90
31639;DHT22;18248;51.522;7.020;2022-11-20T14:46:36;6.00;99.90
31639;DHT22;18248;51.522;7.020;2022-11-20T14:49:35;6.00;99.90
31639;DHT22;18248;51.522;7.020;2022-11-20T14:52:34;6.00;99.90
31639;DHT22;18248;51.522;7.020;2022-11-20T14:55:35;6.00;99.90
31639;DHT22;18248;51.522;7.020;2022-11-20T14:58:34;6.00;99.90
31639;DHT22;18248;51.522;7.020;2022-11-20T15:01:33;5.90;99.90
31639;DHT22;18248;51.522;7.020;2022-11-20T15:04:32;5.90;99.90
31639;DHT22;18248;51.522;7.020;2022-11-20T15:08:07;5.90;99.90
31639;DHT22;18248;51.522;7.020;2022-11-20T15:11:18;5.90;99.90
31639;DHT22;18248;51.522;7.020;2022-11-20T15:14:17;5.90;99.90
31639;DHT22;18248;51.522;7.020;2022-11-20T15:17:16;5.90;99.90
31639;DHT22;18248;51.522;7.020;2022-11-20T15:20:16;5.90;99.90
31639;DHT22;18248;51.522;7.020;2022-11-20T15:23:17;5.90;99.90
31639;DHT22;18248;51.522;7.020;2022-11-20T15:26:25;5.90;99.90
31639;DHT22;18248;51.522;7.020;2022-11-20T15:29:25;5.80;99.90
31639;DHT22;18248;51.522;7.020;2022-11-20T15:32:24;5.80;99.90
31639;DHT22;18248;51.522;7.020;2022-11-20T15:35:22;5.80;99.90
31639;DHT22;18248;51.522;7.020;2022-11-20T15:38:21;5.80;99.90
31639;DHT22;18248;51.522;7.020;2022-11-20T15:41:19;5.80;99.90
31639;DHT22;18248;51.522;7.020;2022-11-20T15:44:18;5.80;99.90
31639;DHT22;18248;51.522;7.020;2022-11-20T15:47:17;5.80;99.90
31639;DHT22;18248;51.522;7.020;2022-11-20T15:50:17;5.70;99.90
31639;DHT22;18248;51.522;7.020;2022-11-20T15:53:17;5.70;99.90
31639;DHT22;18248;51.522;7.020;2022-11-20T15:56:15;5.70;99.90
31639;DHT22;18248;51.522;7.020;2022-11-20T15:59:14;5.70;99.90
31639;DHT22;18248;51.522;7.020;2022-11-20T16:02:14;5.60;99.90
31639;DHT22;18248;51.522;7.020;2022-11-20T16:05:14;5.60;99.90
31639;DHT22;18248;51.522;7.020;2022-11-20T16:08:13;5.60;99.90
31639;DHT22;18248;51.522;7.020;2022-11-20T16:11:14;5.60;99.90
31639;DHT22;18248;51.522;7.020;2022-11-20T16:14:13;5.50;99.90
31639;DHT22;18248;51.522;7.020;2022-11-20T16:17:30;5.50;99.90
31639;DHT22;18248;51.522;7.020;2022-11-20T16:20:41;5.50;99.90
31639;DHT22;18248;51.522;7.020;2022-11-20T16:23:40;5.50;99.90
31639;DHT22;18248;51.522;7.020;2022-11-20T16:26:40;5.50;99.90
31639;DHT22;18248;51.522;7.020;2022-11-20T16:29:38;5.50;99.90
31639;DHT22;18248;51.522;7.020;2022-11-20T16:32:37;5.50;99.90
31639;DHT22;18248;51.522;7.020;2022-11-20T16:35:36;5.50;99.90
31639;DHT22;18248;51.522;7.020;2022-11-20T16:38:35;5.50;99.90
31639;DHT22;18248;51.522;7.020;2022-11-20T16:41:34;5.50;99.90
31639;DHT22;18248;51.522;7.020;2022-11-20T16:44:33;5.40;99.90
31639;DHT22;18248;51.522;7.020;2022-11-20T16:47:35;5.40;99.90
31639;DHT22;18248;51.522;7.020;2022-11-20T16:50:35;5.40;99.90
31639;DHT22;18248;51.522;7.020;2022-11-20T16:53:33;5.40;99.90
31639;DHT22;18248;51.522;7.020;2022-11-20T16:56:32;5.40;99.90
31639;DHT22;18248;51.522;7.020;2022-11-20T16:59:30;5.40;99.90
31639;DHT22;18248;51.522;7.020;2022-11-20T17:02:29;5.30;99.90
31639;DHT22;18248;51.522;7.020;2022-11-20T17:05:29;5.30;99.90
31639;DHT22;18248;51.522;7.020;2022-11-20T17:08:28;5.30;99.90
31639;DHT22;18248;51.522;7.020;2022-11-20T17:11:27;5.40;99.90
31639;DHT22;18248;51.522;7.020;2022-11-20T17:14:28;5.40;99.90
31639;DHT22;18248;51.522;7.020;2022-11-20T17:17:28;5.40;99.90
31639;DHT22;18248;51.522;7.020;2022-11-20T17:20:28;5.40;99.90
31639;DHT22;18248;51.522;7.020;2022-11-20T17:23:30;5.50;99.90
31639;DHT22;18248;51.522;7.020;2022-11-20T17:26:29;5.50;99.90
31639;DHT22;18248;51.522;7.020;2022-11-20T17:29:28;5.50;99.90
31639;DHT22;18248;51.522;7.020;2022-11-20T17:32:27;5.50;99.90
31639;DHT22;18248;51.522;7.020;2022-11-20T17:35:26;5.50;99.90
31639;DHT22;18248;51.522;7.020;2022-11-20T17:38:24;5.50;99.90
31639;DHT22;18248;51.522;7.020;2022-11-20T17:41:25;5.50;99.90
31639;DHT22;18248;51.522;7.020;2022-11-20T17:44:23;5.50;99.90
31639;DHT22;18248;51.522;7.020;2022-11-20T17:47:22;5.50;99.90
31639;DHT22;18248;51.522;7.020;2022-11-20T17:50:20;5.50;99.90
31639;DHT22;18248;51.522;7.020;2022-11-20T17:53:19;5.50;99.90
31639;DHT22;18248;51.522;7.020;2022-11-20T17:56:19;5.50;99.90
31639;DHT22;18248;51.522;7.020;2022-11-20T17:59:37;5.60;99.90
31639;DHT22;18248;51.522;7.020;2022-11-20T18:02:35;5.60;99.90
31639;DHT22;18248;51.522;7.020;2022-11-20T18:05:34;5.60;99.90
31639;DHT22;18248;51.522;7.020;2022-11-20T18:08:33;5.60;99.90
31639;DHT22;18248;51.522;7.020;2022-11-20T18:11:34;5.60;99.90
31639;DHT22;18248;51.522;7.020;2022-11-20T18:14:33;5.70;99.90
31639;DHT22;18248;51.522;7.020;2022-11-20T18:17:33;5.70;99.90
31639;DHT22;18248;51.522;7.020;2022-11-20T18:20:32;5.70;99.90
31639;DHT22;18248;51.522;7.020;2022-11-20T18:23:32;5.70;99.90
31639;DHT22;18248;51.522;7.020;2022-11-20T18:26:31;5.70;99.90
31639;DHT22;18248;51.522;7.020;2022-11-20T18:29:29;5.80;99.90
31639;DHT22;18248;51.522;7.020;2022-11-20T18:32:28;5.80;99.90
31639;DHT22;18248;51.522;7.020;2022-11-20T18:35:27;5.80;99.90
31639;DHT22;18248;51.522;7.020;2022-11-20T18:38:25;5.90;99.90
31639;DHT22;18248;51.522;7.020;2022-11-20T18:41:27;5.90;99.90
31639;DHT22;18248;51.522;7.020;2022-11-20T18:44:44;5.90;99.90
31639;DHT22;18248;51.522;7.020;2022-11-20T18:47:49;6.00;99.90
31639;DHT22;18248;51.522;7.020;2022-11-20T18:50:48;6.00;99.90
31639;DHT22;18248;51.522;7.020;2022-11-20T18:53:47;6.00;99.90
31639;DHT22;18248;51.522;7.020;2022-11-20T18:56:45;6.10;99.90
31639;DHT22;18248;51.522;7.020;2022-11-20T18:59:45;6.10;99.90
31639;DHT22;18248;51.522;7.020;2022-11-20T19:02:43;6.10;99.90
31639;DHT22;18248;51.522;7.020;2022-11-20T19:05:42;6.20;99.90
31639;DHT22;18248;51.522;7.020;2022-11-20T19:08:40;6.20;99.90
31639;DHT22;18248;51.522;7.020;2022-11-20T19:11:39;6.20;99.90
31639;DHT22;18248;51.522;7.020;2022-11-20T19:14:38;6.20;99.90
31639;DHT22;18248;51.522;7.020;2022-11-20T19:17:38;6.20;99.90
31639;DHT22;18248;51.522;7.020;2022-11-20T19:20:37;6.30;99.90
31639;DHT22;18248;51.522;7.020;2022-11-20T19:23:36;6.30;99.90
31639;DHT22;18248;51.522;7.020;2022-11-20T19:26:36;6.30;99.90
31639;DHT22;18248;51.522;7.020;2022-11-20T19:29:34;6.40;99.90
31639;DHT22;18248;51.522;7.020;2022-11-20T19:32:33;6.40;99.90
31639;DHT22;18248;51.522;7.020;2022-11-20T19:35:33;6.40;99.90
31639;DHT22;18248;51.522;7.020;2022-11-20T19:38:31;6.40;99.90
31639;DHT22;18248;51.522;7.020;2022-11-20T19:41:32;6.40;99.90
31639;DHT22;18248;51.522;7.020;2022-11-20T19:44:31;6.50;99.90
31639;DHT22;18248;51.522;7.020;2022-11-20T19:47:30;6.50;99.90
31639;DHT22;18248;51.522;7.020;2022-11-20T19:50:30;6.50;99.90
31639;DHT22;18248;51.522;7.020;2022-11-20T19:53:29;6.50;99.90
31639;DHT22;18248;51.522;7.020;2022-11-20T19:56:28;6.60;99.90
31639;DHT22;18248;51.522;7.020;2022-11-20T19:59:27;6.60;99.90
31639;DHT22;18248;51.522;7.020;2022-11-20T20:02:26;6.60;99.90
31639;DHT22;18248;51.522;7.020;2022-11-20T20:05:24;6.60;99.90
31639;DHT22;18248;51.522;7.020;2022-11-20T20:08:23;6.60;99.90
31639;DHT22;18248;51.522;7.020;2022-11-20T20:11:24;6.60;99.90
31639;DHT22;18248;51.522;7.020;2022-11-20T20:14:23;6.60;99.90
31639;DHT22;18248;51.522;7.020;2022-11-20T20:17:22;6.60;99.90
31639;DHT22;18248;51.522;7.020;2022-11-20T20:20:21;6.60;99.90
31639;DHT22;18248;51.522;7.020;2022-11-20T20:23:20;6.60;99.90
31639;DHT22;18248;51.522;7.020;2022-11-20T20:26:23;6.70;99.90